Time;durP1;ratioP1;P1;durP2;ratioP2;P2;SDS_P1;SDS_P2;PMS_P1;PMS_P2;Temp;Humidity;BMP_temperature;BMP_pressure;BME280_temperature;BME280_humidity;BME280_pressure;Samples;Min_cycle;Max_cycle;Signal;HPM_P1;HPM_P2
2021/09/23 00:02:15;;;;;;;12.38;7.15;;;14.50;89.30;;;;;;5033424;28;20036;-75
2021/09/23 00:04:41;;;;;;;14.00;7.60;;;14.50;89.30;;;;;;5034336;28;20051;-76
2021/09/23 00:07:07;;;;;;;14.07;6.82;;;14.50;89.30;;;;;;5034415;28;20018;-76
2021/09/23 00:09:33;;;;;;;15.15;7.30;;;14.40;89.20;;;;;;5035232;28;20346;-76
2021/09/23 00:11:58;;;;;;;13.70;7.28;;;14.50;89.20;;;;;;5034488;28;20095;-75
2021/09/23 00:14:24;;;;;;;15.50;8.10;;;14.50;89.40;;;;;;5035016;28;20018;-75
2021/09/23 00:16:50;;;;;;;12.23;6.47;;;14.40;89.30;;;;;;5033656;28;20025;-75
2021/09/23 00:19:17;;;;;;;12.35;6.70;;;14.40;89.30;;;;;;5033058;28;20407;-75
2021/09/23 00:21:42;;;;;;;12.82;7.00;;;14.40;89.40;;;;;;5033667;28;20442;-75
2021/09/23 00:24:08;;;;;;;11.70;7.20;;;14.30;89.40;;;;;;5034036;28;20025;-75
2021/09/23 00:26:34;;;;;;;13.48;7.32;;;14.40;89.50;;;;;;5033605;28;20030;-75
2021/09/23 00:29:02;;;;;;;10.95;6.57;;;14.30;89.50;;;;;;5034210;28;20406;-75
2021/09/23 00:31:28;;;;;;;13.30;7.28;;;14.30;89.50;;;;;;5033746;28;20343;-75
2021/09/23 00:33:53;;;;;;;12.00;7.43;;;14.30;89.60;;;;;;5034145;28;20025;-75
2021/09/23 00:36:19;;;;;;;13.65;7.28;;;14.30;89.50;;;;;;5033763;28;20037;-75
2021/09/23 00:38:45;;;;;;;12.77;6.78;;;14.30;89.50;;;;;;5034422;28;20029;-75
2021/09/23 00:41:10;;;;;;;12.45;6.57;;;14.30;89.40;;;;;;5034110;28;20408;-75
2021/09/23 00:43:36;;;;;;;13.43;6.82;;;14.30;89.50;;;;;;5034760;28;20104;-75
2021/09/23 00:46:01;;;;;;;12.50;6.68;;;14.20;89.60;;;;;;5033700;28;20096;-75
2021/09/23 00:48:27;;;;;;;11.45;6.93;;;14.20;89.70;;;;;;5034155;28;20018;-75
2021/09/23 00:50:53;;;;;;;15.10;7.43;;;14.20;89.80;;;;;;5044643;28;20403;-75
2021/09/23 00:53:20;;;;;;;12.98;7.13;;;14.20;89.80;;;;;;5051074;28;20025;-74
2021/09/23 00:55:48;;;;;;;15.15;7.30;;;14.20;89.90;;;;;;5053055;28;20431;-74
2021/09/23 00:58:13;;;;;;;15.52;7.50;;;14.20;89.90;;;;;;5053693;28;20086;-74
2021/09/23 01:00:40;;;;;;;13.68;6.80;;;14.20;89.80;;;;;;5054243;28;20020;-74
2021/09/23 01:03:05;;;;;;;12.32;6.95;;;14.20;89.70;;;;;;5053734;28;20100;-74
2021/09/23 01:05:31;;;;;;;14.77;8.27;;;14.20;89.70;;;;;;5054074;28;20476;-74
2021/09/23 01:07:57;;;;;;;14.10;7.22;;;14.20;89.60;;;;;;5054017;28;20464;-76
2021/09/23 01:10:22;;;;;;;16.77;8.20;;;14.20;89.70;;;;;;5053069;28;20021;-74
2021/09/23 01:12:48;;;;;;;15.73;7.70;;;14.20;89.70;;;;;;5053975;28;20024;-74
2021/09/23 01:15:17;;;;;;;13.85;7.88;;;14.10;89.70;;;;;;5053140;28;20121;-74
2021/09/23 01:17:43;;;;;;;12.50;7.35;;;14.10;89.80;;;;;;5053870;28;20013;-74
2021/09/23 01:20:11;;;;;;;14.45;6.65;;;14.20;89.80;;;;;;5052005;28;20071;-74
2021/09/23 01:22:36;;;;;;;14.43;7.63;;;14.10;89.70;;;;;;5052367;28;20017;-74
2021/09/23 01:25:05;;;;;;;12.48;7.43;;;14.10;89.70;;;;;;5053141;28;20025;-74
2021/09/23 01:27:34;;;;;;;15.75;7.45;;;14.10;89.80;;;;;;5053685;28;20035;-74
2021/09/23 01:30:01;;;;;;;15.57;7.88;;;14.10;89.80;;;;;;5052288;28;20044;-74
2021/09/23 01:32:26;;;;;;;13.35;6.63;;;14.10;89.80;;;;;;5053319;28;20434;-74
2021/09/23 01:34:52;;;;;;;15.80;7.40;;;14.10;89.90;;;;;;5053336;28;20048;-74
2021/09/23 01:37:18;;;;;;;15.40;7.70;;;14.00;89.80;;;;;;5052812;28;20066;-75
2021/09/23 01:39:44;;;;;;;13.85;8.10;;;14.10;89.90;;;;;;5053380;28;20025;-74
2021/09/23 01:42:09;;;;;;;15.43;8.27;;;14.00;89.70;;;;;;5052768;28;20048;-74
2021/09/23 01:44:35;;;;;;;17.10;7.57;;;14.00;89.70;;;;;;5053564;28;20411;-74
2021/09/23 01:47:02;;;;;;;16.40;7.80;;;14.00;89.80;;;;;;5051875;28;20021;-74
2021/09/23 01:49:28;;;;;;;15.60;7.93;;;14.00;90.00;;;;;;5051940;28;20021;-74
2021/09/23 01:51:54;;;;;;;17.02;7.72;;;14.00;89.90;;;;;;5053201;28;20410;-74
2021/09/23 01:54:20;;;;;;;14.77;7.75;;;14.00;89.90;;;;;;5052620;28;20027;-74
2021/09/23 01:56:45;;;;;;;15.45;7.85;;;14.00;89.90;;;;;;5051705;28;20405;-74
2021/09/23 01:59:11;;;;;;;14.48;7.32;;;14.00;90.00;;;;;;5052505;28;20070;-74
2021/09/23 02:01:37;;;;;;;14.02;7.97;;;14.00;90.00;;;;;;5053289;28;20453;-74
2021/09/23 02:04:03;;;;;;;14.00;7.45;;;14.00;90.00;;;;;;5052681;28;20064;-74
2021/09/23 02:06:29;;;;;;;16.27;8.07;;;13.90;89.90;;;;;;5052721;28;20500;-74
2021/09/23 02:08:55;;;;;;;20.13;8.40;;;14.00;90.00;;;;;;5052669;28;20092;-74
2021/09/23 02:11:21;;;;;;;17.15;8.48;;;13.90;90.00;;;;;;5052291;28;20027;-74
2021/09/23 02:13:47;;;;;;;14.30;7.43;;;13.90;90.00;;;;;;5051163;28;20013;-74
2021/09/23 02:16:13;;;;;;;16.08;8.32;;;13.90;90.00;;;;;;5052161;28;20075;-74
2021/09/23 02:18:38;;;;;;;15.90;7.72;;;13.90;90.00;;;;;;5052701;28;20509;-74
2021/09/23 02:21:05;;;;;;;18.67;8.88;;;13.90;90.00;;;;;;5052689;28;20104;-74
2021/09/23 02:23:30;;;;;;;15.35;8.15;;;13.90;90.00;;;;;;5052312;28;20017;-74
2021/09/23 02:25:56;;;;;;;14.95;7.85;;;13.90;90.00;;;;;;5052531;28;20032;-74
2021/09/23 02:28:22;;;;;;;18.33;8.43;;;13.90;90.10;;;;;;5050520;28;20020;-74
2021/09/23 02:30:48;;;;;;;15.68;8.05;;;13.90;90.10;;;;;;5052500;28;20112;-74
2021/09/23 02:33:13;;;;;;;18.38;7.68;;;13.90;90.10;;;;;;5051962;28;20361;-74
2021/09/23 02:35:39;;;;;;;18.60;9.25;;;13.80;90.10;;;;;;5051979;28;20045;-75
2021/09/23 02:38:05;;;;;;;15.13;8.77;;;13.80;90.10;;;;;;5052082;28;20105;-74
2021/09/23 02:40:31;;;;;;;20.63;9.57;;;13.80;90.10;;;;;;5050480;28;20422;-74
2021/09/23 02:42:56;;;;;;;17.00;8.02;;;13.80;90.10;;;;;;5050957;28;20020;-74
2021/09/23 02:45:22;;;;;;;16.58;7.78;;;13.70;90.10;;;;;;5051629;28;20028;-74
2021/09/23 02:47:48;;;;;;;14.82;7.63;;;13.70;90.20;;;;;;5051930;28;20019;-75
2021/09/23 02:50:13;;;;;;;18.38;8.55;;;13.70;90.20;;;;;;5047504;28;20018;-73
2021/09/23 02:52:39;;;;;;;15.35;7.95;;;13.70;90.30;;;;;;5032267;28;20369;-74
2021/09/23 02:55:05;;;;;;;18.40;8.27;;;13.70;90.60;;;;;;5030962;28;20032;-74
2021/09/23 02:57:31;;;;;;;20.63;8.10;;;13.70;90.30;;;;;;5031216;28;20385;-75
2021/09/23 02:59:57;;;;;;;18.58;9.15;;;13.70;90.30;;;;;;5030790;28;20021;-75
2021/09/23 03:02:22;;;;;;;19.00;8.00;;;13.60;90.30;;;;;;5046485;28;20049;-75
2021/09/23 03:04:48;;;;;;;17.85;8.05;;;13.70;90.30;;;;;;5032403;28;20030;-75
2021/09/23 03:07:14;;;;;;;20.60;9.38;;;13.60;90.30;;;;;;5031475;28;20025;-75
2021/09/23 03:09:39;;;;;;;19.50;7.95;;;13.60;90.30;;;;;;5030766;28;20040;-75
2021/09/23 03:12:05;;;;;;;17.92;8.93;;;13.60;90.40;;;;;;5032096;28;20022;-75
2021/09/23 03:14:31;;;;;;;19.20;7.82;;;13.60;90.40;;;;;;5031271;28;20017;-75
2021/09/23 03:16:57;;;;;;;19.42;8.38;;;13.60;90.40;;;;;;5033618;28;20464;-75
2021/09/23 03:19:22;;;;;;;21.45;8.82;;;13.60;90.40;;;;;;5035181;28;20021;-75
2021/09/23 03:21:48;;;;;;;15.90;8.15;;;13.60;90.40;;;;;;5036387;28;20021;-75
2021/09/23 03:24:14;;;;;;;16.52;8.18;;;13.60;90.30;;;;;;5035525;28;20017;-75
2021/09/23 03:26:40;;;;;;;16.00;7.88;;;13.60;90.30;;;;;;5034763;28;20025;-75
2021/09/23 03:29:08;;;;;;;17.33;8.88;;;13.60;90.40;;;;;;5034630;28;20022;-75
2021/09/23 03:31:36;;;;;;;18.55;8.93;;;13.60;90.40;;;;;;5035287;28;20112;-75
2021/09/23 03:34:02;;;;;;;17.02;7.90;;;13.60;90.40;;;;;;5035874;28;20028;-75
2021/09/23 03:36:29;;;;;;;14.73;7.30;;;13.60;90.40;;;;;;5034666;28;20494;-75
2021/09/23 03:38:55;;;;;;;15.98;7.70;;;13.60;90.40;;;;;;5034253;28;20059;-75
2021/09/23 03:41:24;;;;;;;18.20;7.95;;;13.60;90.40;;;;;;5034883;28;20014;-75
2021/09/23 03:43:50;;;;;;;20.75;8.10;;;13.50;90.50;;;;;;5035701;28;20063;-75
2021/09/23 03:46:17;;;;;;;17.90;8.30;;;13.50;90.50;;;;;;5035316;28;20052;-75
2021/09/23 03:48:44;;;;;;;17.90;8.68;;;13.50;90.50;;;;;;5034258;28;20013;-75
2021/09/23 03:51:13;;;;;;;21.20;8.80;;;13.50;90.50;;;;;;5034291;28;20021;-75
2021/09/23 03:53:40;;;;;;;17.02;8.55;;;13.40;90.50;;;;;;5035423;28;20127;-75
2021/09/23 03:56:07;;;;;;;17.88;8.75;;;13.50;90.50;;;;;;5035389;28;20029;-75
2021/09/23 03:58:33;;;;;;;16.75;8.63;;;13.40;90.50;;;;;;5034778;28;20501;-75
2021/09/23 04:00:59;;;;;;;24.65;9.10;;;13.40;90.60;;;;;;5035511;28;20021;-76
2021/09/23 04:03:25;;;;;;;17.27;8.07;;;13.40;90.60;;;;;;5033728;28;20117;-75
2021/09/23 04:05:53;;;;;;;22.30;8.93;;;13.40;90.60;;;;;;5049893;28;20061;-75
2021/09/23 04:08:18;;;;;;;17.15;8.23;;;13.40;90.60;;;;;;5033985;28;20021;-75
2021/09/23 04:10:44;;;;;;;18.02;8.95;;;13.40;90.60;;;;;;5043222;28;20017;-75
2021/09/23 04:13:10;;;;;;;16.23;8.63;;;13.40;90.70;;;;;;5054313;28;20033;-75
2021/09/23 04:15:35;;;;;;;17.50;8.27;;;13.40;90.70;;;;;;5054048;28;20058;-75
2021/09/23 04:18:01;;;;;;;14.68;8.57;;;13.40;90.70;;;;;;5054798;28;20451;-75
2021/09/23 04:20:27;;;;;;;20.33;8.95;;;13.40;90.70;;;;;;5054222;28;20029;-75
2021/09/23 04:22:53;;;;;;;19.95;10.55;;;13.40;90.70;;;;;;5053346;28;20027;-75
2021/09/23 04:25:18;;;;;;;17.17;9.07;;;13.40;90.70;;;;;;5054106;28;20101;-75
2021/09/23 04:27:44;;;;;;;13.75;8.65;;;13.30;90.70;;;;;;5054698;28;20107;-75
2021/09/23 04:30:10;;;;;;;18.10;9.57;;;13.40;90.70;;;;;;5054493;28;20029;-75
2021/09/23 04:32:36;;;;;;;18.98;9.50;;;13.30;90.70;;;;;;5053820;28;20025;-75
2021/09/23 04:35:02;;;;;;;21.05;9.05;;;13.30;90.80;;;;;;5054435;28;20072;-75
2021/09/23 04:37:27;;;;;;;16.95;8.52;;;13.30;90.80;;;;;;5053831;28;20029;-75
2021/09/23 04:39:53;;;;;;;17.67;9.20;;;13.30;90.80;;;;;;5054163;28;20103;-75
2021/09/23 04:42:19;;;;;;;14.02;8.27;;;13.30;90.80;;;;;;5053417;28;20439;-75
2021/09/23 04:44:45;;;;;;;17.95;9.02;;;13.30;90.80;;;;;;5052195;28;20445;-75
2021/09/23 04:47:11;;;;;;;18.67;8.98;;;13.30;90.80;;;;;;5053999;28;20051;-76
2021/09/23 04:49:37;;;;;;;17.83;9.95;;;13.30;90.90;;;;;;5052818;28;20067;-75
2021/09/23 04:52:03;;;;;;;17.35;9.13;;;13.30;90.90;;;;;;5052699;28;20032;-75
2021/09/23 04:54:29;;;;;;;17.10;8.18;;;13.30;90.90;;;;;;5053681;28;20021;-75
2021/09/23 04:56:54;;;;;;;18.08;9.68;;;13.30;90.90;;;;;;5054102;28;20064;-75
2021/09/23 04:59:20;;;;;;;17.55;9.07;;;13.30;90.90;;;;;;5053040;28;20024;-75
2021/09/23 05:01:46;;;;;;;17.83;8.73;;;13.30;90.90;;;;;;5053844;28;20496;-75
2021/09/23 05:04:11;;;;;;;19.38;8.65;;;13.30;90.90;;;;;;5053988;28;20025;-75
2021/09/23 05:06:37;;;;;;;16.02;8.48;;;13.30;90.90;;;;;;5049578;28;20029;-79
2021/09/23 05:09:03;;;;;;;16.10;9.35;;;13.30;90.90;;;;;;5051839;28;20028;-82
2021/09/23 05:11:28;;;;;;;16.80;9.25;;;13.30;91.00;;;;;;5051218;28;20029;-80
2021/09/23 05:13:55;;;;;;;13.85;7.85;;;13.30;90.90;;;;;;5051784;28;20021;-80
2021/09/23 05:16:21;;;;;;;16.65;8.60;;;13.30;90.90;;;;;;5050911;28;20068;-78
2021/09/23 05:18:46;;;;;;;19.88;9.38;;;13.30;91.00;;;;;;5049311;28;20389;-78
2021/09/23 05:21:12;;;;;;;14.73;7.88;;;13.30;91.00;;;;;;5050199;28;20021;-78
2021/09/23 05:23:38;;;;;;;14.48;7.30;;;13.30;91.00;;;;;;5049414;28;20737;-78
2021/09/23 05:26:04;;;;;;;14.63;8.25;;;13.30;90.90;;;;;;5050014;28;20120;-78
2021/09/23 05:28:30;;;;;;;18.98;9.32;;;13.30;90.90;;;;;;5050661;28;20029;-78
2021/09/23 05:30:55;;;;;;;16.58;9.60;;;13.30;91.00;;;;;;5051308;28;20035;-78
2021/09/23 05:33:21;;;;;;;22.65;8.77;;;13.30;91.00;;;;;;5051136;28;20069;-75
2021/09/23 05:35:47;;;;;;;14.07;7.75;;;13.20;90.90;;;;;;5053344;28;20473;-73
2021/09/23 05:38:13;;;;;;;15.40;8.07;;;13.20;90.90;;;;;;5053081;28;20104;-73
2021/09/23 05:40:40;;;;;;;15.90;7.95;;;13.20;91.00;;;;;;5051970;28;20555;-73
2021/09/23 05:43:06;;;;;;;18.17;8.02;;;13.20;91.00;;;;;;5053325;28;20033;-74
2021/09/23 05:45:32;;;;;;;11.60;6.28;;;13.20;91.00;;;;;;5052680;28;20041;-75
2021/09/23 05:47:57;;;;;;;17.17;8.32;;;13.20;91.00;;;;;;5053042;28;20051;-74
2021/09/23 05:50:23;;;;;;;16.20;8.23;;;13.20;91.00;;;;;;5052737;28;20024;-75
2021/09/23 05:52:49;;;;;;;20.13;9.77;;;13.20;91.00;;;;;;5053095;28;20036;-72
2021/09/23 05:55:16;;;;;;;17.15;9.18;;;13.20;91.00;;;;;;5052726;28;20029;-73
2021/09/23 05:57:41;;;;;;;20.10;9.40;;;13.10;91.00;;;;;;5052160;28;20523;-73
2021/09/23 06:00:13;;;;;;;18.08;8.65;;;13.10;91.00;;;;;;5051595;28;20104;-73
2021/09/23 06:02:40;;;;;;;19.75;9.82;;;13.10;91.00;;;;;;5052509;28;20127;-75
2021/09/23 06:05:06;;;;;;;14.98;7.63;;;13.20;91.10;;;;;;5052829;28;20111;-73
2021/09/23 06:07:32;;;;;;;19.35;9.45;;;13.20;91.10;;;;;;5052449;28;20067;-75
2021/09/23 06:09:58;;;;;;;16.88;9.10;;;13.20;91.00;;;;;;5052460;28;20033;-73
2021/09/23 06:12:24;;;;;;;17.27;8.60;;;13.20;91.00;;;;;;5050665;28;20017;-72
2021/09/23 06:14:49;;;;;;;17.52;9.07;;;13.20;91.00;;;;;;5051317;28;20036;-73
2021/09/23 06:17:15;;;;;;;17.83;9.57;;;13.20;91.00;;;;;;5052534;28;20112;-73
2021/09/23 06:19:41;;;;;;;19.30;9.38;;;13.20;91.00;;;;;;5051552;28;20392;-73
2021/09/23 06:22:07;;;;;;;16.70;9.10;;;13.20;91.00;;;;;;5051150;28;20115;-73
2021/09/23 06:24:32;;;;;;;15.50;8.40;;;13.20;91.00;;;;;;5051836;28;20112;-73
2021/09/23 06:26:58;;;;;;;16.90;9.50;;;13.30;91.00;;;;;;5052440;28;20021;-73
2021/09/23 06:29:24;;;;;;;17.83;9.38;;;13.30;91.00;;;;;;5051703;28;20025;-73
2021/09/23 06:31:49;;;;;;;18.13;9.55;;;13.30;91.00;;;;;;5052314;28;20024;-73
2021/09/23 06:34:15;;;;;;;18.17;9.65;;;13.30;91.00;;;;;;5051930;28;20465;-74
2021/09/23 06:36:41;;;;;;;17.13;9.15;;;13.30;91.10;;;;;;5051328;28;20028;-73
2021/09/23 06:39:07;;;;;;;18.15;9.40;;;13.40;91.00;;;;;;5051954;28;20465;-73
2021/09/23 06:41:33;;;;;;;17.33;9.30;;;13.40;90.90;;;;;;5051615;28;20430;-74
2021/09/23 06:44:04;;;;;;;22.25;10.90;;;13.40;90.90;;;;;;5051768;28;20093;-73
2021/09/23 06:46:30;;;;;;;20.08;9.73;;;13.40;91.00;;;;;;5051529;28;20029;-73
2021/09/23 06:48:56;;;;;;;19.95;9.02;;;13.50;91.00;;;;;;5051711;28;20028;-74
2021/09/23 06:51:21;;;;;;;16.17;9.35;;;13.50;91.00;;;;;;5051987;28;20036;-73
2021/09/23 06:53:47;;;;;;;15.82;8.63;;;13.50;91.00;;;;;;5050044;28;20025;-73
2021/09/23 06:56:13;;;;;;;18.08;9.35;;;13.60;91.00;;;;;;5051720;28;20025;-73
2021/09/23 06:58:39;;;;;;;20.88;10.60;;;13.60;91.00;;;;;;5050989;28;20053;-73
2021/09/23 07:01:05;;;;;;;20.58;11.25;;;13.60;91.10;;;;;;5051623;28;20064;-73
2021/09/23 07:03:30;;;;;;;21.30;11.93;;;13.70;91.10;;;;;;5050969;28;20108;-73
2021/09/23 07:05:56;;;;;;;17.95;10.73;;;13.70;91.20;;;;;;5052018;28;20093;-73
2021/09/23 07:08:22;;;;;;;21.20;11.38;;;13.70;91.20;;;;;;5051833;28;20029;-73
2021/09/23 07:10:50;;;;;;;17.38;9.85;;;13.80;91.30;;;;;;5051083;28;20029;-73
2021/09/23 07:13:15;;;;;;;19.20;9.98;;;13.80;91.40;;;;;;5050441;28;20029;-73
2021/09/23 07:15:41;;;;;;;19.83;10.95;;;13.80;91.40;;;;;;5051090;28;20033;-73
2021/09/23 07:18:07;;;;;;;18.90;9.85;;;13.80;91.40;;;;;;5051708;28;20102;-73
2021/09/23 07:20:33;;;;;;;23.58;11.63;;;13.80;91.40;;;;;;5051008;28;20021;-73
2021/09/23 07:22:58;;;;;;;24.88;12.00;;;13.90;91.60;;;;;;5051751;28;20442;-72
2021/09/23 07:25:24;;;;;;;23.42;11.70;;;13.90;91.60;;;;;;5050359;28;20036;-74
2021/09/23 07:27:54;;;;;;;24.70;12.57;;;14.00;91.70;;;;;;5051055;28;20096;-73
2021/09/23 07:30:21;;;;;;;21.17;10.68;;;14.00;91.80;;;;;;5051342;28;20021;-73
2021/09/23 07:32:47;;;;;;;23.27;12.25;;;14.10;91.70;;;;;;5049485;28;20112;-74
2021/09/23 07:35:13;;;;;;;24.50;12.50;;;14.30;91.70;;;;;;5051682;28;20168;-73
2021/09/23 07:37:40;;;;;;;21.85;11.82;;;14.40;91.60;;;;;;5050776;28;20024;-74
2021/09/23 07:40:07;;;;;;;22.83;10.90;;;14.60;91.50;;;;;;5051591;28;20029;-74
2021/09/23 07:42:33;;;;;;;21.92;11.30;;;14.80;91.40;;;;;;5049699;28;20031;-74
2021/09/23 07:45:00;;;;;;;23.55;12.20;;;14.90;91.30;;;;;;5051498;28;20025;-74
2021/09/23 07:47:25;;;;;;;25.00;13.20;;;15.00;91.30;;;;;;5051494;28;20087;-74
2021/09/23 07:49:52;;;;;;;28.65;14.95;;;15.10;91.30;;;;;;5049448;28;20025;-73
2021/09/23 07:52:17;;;;;;;23.38;12.13;;;15.20;91.30;;;;;;5051329;28;20032;-74
2021/09/23 07:54:43;;;;;;;22.73;11.80;;;15.30;91.30;;;;;;5066224;28;20025;-74
2021/09/23 07:57:09;;;;;;;25.50;13.90;;;15.30;91.50;;;;;;5051164;28;20029;-73
2021/09/23 07:59:35;;;;;;;27.63;13.77;;;15.30;91.70;;;;;;5050676;28;20415;-73
2021/09/23 08:02:00;;;;;;;24.85;13.48;;;15.30;91.80;;;;;;5051457;28;20017;-73
2021/09/23 08:04:26;;;;;;;24.15;13.40;;;15.30;92.00;;;;;;5054490;28;20370;-73
2021/09/23 08:06:52;;;;;;;27.27;13.25;;;15.30;92.10;;;;;;5054712;28;20100;-73
2021/09/23 08:09:18;;;;;;;27.00;14.10;;;15.30;92.30;;;;;;5055028;28;20041;-74
2021/09/23 08:11:46;;;;;;;24.70;13.15;;;15.30;92.40;;;;;;5054372;28;20025;-73
2021/09/23 08:14:12;;;;;;;26.85;12.30;;;15.40;92.50;;;;;;5054965;28;20039;-73
2021/09/23 08:16:37;;;;;;;29.42;14.90;;;15.50;92.50;;;;;;5054167;28;20025;-73
2021/09/23 08:19:03;;;;;;;22.42;12.98;;;15.60;92.60;;;;;;5055106;28;20052;-73
2021/09/23 08:21:29;;;;;;;25.90;12.25;;;15.70;92.60;;;;;;5054813;28;20373;-73
2021/09/23 08:23:54;;;;;;;23.70;11.45;;;15.70;92.60;;;;;;5054293;28;20373;-72
2021/09/23 08:26:23;;;;;;;20.35;9.98;;;15.80;92.70;;;;;;5054896;28;20457;-72
2021/09/23 08:28:49;;;;;;;25.48;11.85;;;15.80;92.60;;;;;;5054043;28;20051;-73
2021/09/23 08:31:17;;;;;;;18.45;9.85;;;15.90;92.60;;;;;;5054673;28;20021;-72
2021/09/23 08:33:43;;;;;;;19.60;10.15;;;16.00;92.50;;;;;;5053990;28;20098;-72
2021/09/23 08:36:09;;;;;;;17.65;9.15;;;16.10;92.50;;;;;;5053947;28;20079;-73
2021/09/23 08:38:34;;;;;;;19.52;9.93;;;16.20;92.40;;;;;;5054210;28;20029;-73
2021/09/23 08:41:00;;;;;;;22.27;11.70;;;16.30;92.30;;;;;;5053128;28;20024;-72
2021/09/23 08:43:26;;;;;;;24.58;12.35;;;16.50;92.20;;;;;;5054413;28;20025;-73
2021/09/23 08:45:54;;;;;;;19.70;9.32;;;16.60;92.00;;;;;;5053490;28;20654;-73
2021/09/23 08:48:21;;;;;;;20.27;10.00;;;16.70;91.80;;;;;;5054365;28;20133;-73
2021/09/23 08:50:47;;;;;;;22.25;11.88;;;16.80;92.00;;;;;;5053381;28;20028;-73
2021/09/23 08:53:13;;;;;;;18.52;10.02;;;16.80;91.60;;;;;;5052892;28;20033;-73
2021/09/23 08:55:38;;;;;;;21.58;10.95;;;16.80;91.70;;;;;;5053484;28;20044;-73
2021/09/23 08:58:05;;;;;;;22.10;12.43;;;16.70;91.80;;;;;;5053892;28;20028;-75
2021/09/23 09:00:33;;;;;;;19.80;10.95;;;16.60;91.90;;;;;;5054065;28;20025;-73
2021/09/23 09:03:03;;;;;;;20.20;11.63;;;16.60;92.00;;;;;;5052554;28;20021;-73
2021/09/23 09:05:30;;;;;;;21.95;11.77;;;16.60;92.10;;;;;;5052783;28;20033;-73
2021/09/23 09:08:13;;;;;;;20.60;10.82;;;16.70;92.00;;;;;;5053307;28;20029;-73
2021/09/23 09:10:39;;;;;;;22.20;11.60;;;16.80;91.80;;;;;;5053326;28;20021;-73
2021/09/23 09:13:07;;;;;;;24.02;12.90;;;16.90;91.70;;;;;;5052355;28;20480;-73
2021/09/23 09:15:37;;;;;;;24.13;11.32;;;16.90;91.70;;;;;;5052355;28;20021;-73
2021/09/23 09:18:20;;;;;;;21.02;10.55;;;16.90;91.70;;;;;;5069150;28;20017;-73
2021/09/23 09:20:57;;;;;;;20.20;10.95;;;17.00;91.70;;;;;;5053163;28;20033;-73
2021/09/23 09:23:25;;;;;;;20.30;12.27;;;17.00;91.60;;;;;;5053894;28;20086;-73
2021/09/23 09:25:52;;;;;;;20.67;10.50;;;17.00;91.60;;;;;;5052617;28;20033;-74
2021/09/23 09:28:22;;;;;;;22.10;11.55;;;17.10;91.60;;;;;;5052230;28;20472;-73
2021/09/23 09:30:58;;;;;;;20.67;10.75;;;17.10;91.60;;;;;;5051566;28;20476;-72
2021/09/23 09:33:45;;;;;;;17.98;9.75;;;17.20;91.70;;;;;;5053570;28;20049;-73
2021/09/23 09:36:32;;;;;;;16.20;9.60;;;17.20;91.60;;;;;;5052135;28;20076;-73
2021/09/23 09:39:21;;;;;;;17.90;9.00;;;17.30;91.50;;;;;;5052737;28;20033;-73
2021/09/23 09:41:50;;;;;;;16.20;8.77;;;17.30;91.40;;;;;;5052771;28;20104;-73
2021/09/23 09:44:17;;;;;;;15.77;9.27;;;17.40;91.40;;;;;;5053251;28;20055;-73
2021/09/23 09:46:54;;;;;;;18.33;9.55;;;17.40;91.40;;;;;;5052594;28;20112;-73
2021/09/23 09:49:23;;;;;;;19.20;9.00;;;17.40;91.40;;;;;;5053199;28;20013;-74
2021/09/23 09:51:55;;;;;;;15.60;9.13;;;17.40;91.40;;;;;;5052407;28;20083;-73
2021/09/23 09:54:21;;;;;;;14.70;6.97;;;17.50;91.40;;;;;;5051626;28;20029;-73
2021/09/23 09:56:58;;;;;;;14.10;7.97;;;17.60;91.30;;;;;;5052302;28;20485;-73
2021/09/23 09:59:24;;;;;;;15.23;8.98;;;17.60;91.20;;;;;;5052709;28;20449;-73
2021/09/23 10:01:54;;;;;;;17.88;9.77;;;17.70;91.10;;;;;;5052657;28;20100;-73
2021/09/23 10:04:22;;;;;;;18.27;9.52;;;17.90;90.90;;;;;;5052938;28;20028;-73
2021/09/23 10:06:48;;;;;;;13.20;7.03;;;18.00;90.70;;;;;;5050950;28;20025;-73
2021/09/23 10:09:15;;;;;;;18.85;9.75;;;18.10;90.60;;;;;;5052710;28;20029;-73
2021/09/23 10:11:48;;;;;;;19.10;8.98;;;18.20;90.40;;;;;;5052003;28;20025;-73
2021/09/23 10:14:16;;;;;;;13.63;8.00;;;18.30;90.30;;;;;;5051178;28;20488;-73
2021/09/23 10:16:43;;;;;;;18.15;8.93;;;18.30;90.20;;;;;;5051916;28;20029;-73
2021/09/23 10:19:09;;;;;;;12.30;7.55;;;18.30;90.10;;;;;;5052303;28;20091;-73
2021/09/23 10:21:37;;;;;;;14.38;7.60;;;18.40;90.10;;;;;;5052817;28;20029;-74
2021/09/23 10:24:06;;;;;;;11.38;6.43;;;18.40;90.00;;;;;;5051728;28;20465;-73
2021/09/23 10:26:34;;;;;;;11.32;7.22;;;18.40;90.00;;;;;;5051754;28;20449;-75
2021/09/23 10:29:01;;;;;;;15.32;8.68;;;18.50;89.90;;;;;;5050125;28;20029;-74
2021/09/23 10:31:32;;;;;;;12.20;7.55;;;18.40;89.70;;;;;;5052089;28;20025;-73
2021/09/23 10:34:00;;;;;;;11.60;6.38;;;18.40;89.70;;;;;;5050297;28;20024;-72
2021/09/23 10:36:28;;;;;;;11.43;6.65;;;18.50;89.70;;;;;;5051803;28;20041;-73
2021/09/23 10:38:55;;;;;;;10.70;6.78;;;18.50;89.40;;;;;;5051615;28;20017;-74
2021/09/23 10:41:22;;;;;;;15.25;8.10;;;18.50;89.40;;;;;;5051855;28;20122;-73
2021/09/23 10:43:49;;;;;;;12.88;7.63;;;18.50;89.20;;;;;;5051458;28;20025;-73
2021/09/23 10:46:15;;;;;;;14.02;7.75;;;18.40;89.20;;;;;;5052018;28;20025;-73
2021/09/23 10:48:45;;;;;;;11.98;6.25;;;18.40;89.20;;;;;;5051515;28;20025;-73
2021/09/23 10:51:14;;;;;;;12.32;6.22;;;18.40;89.40;;;;;;5052057;28;20039;-74
2021/09/23 10:53:55;;;;;;;7.57;4.70;;;18.30;89.50;;;;;;5051870;28;20035;-73
2021/09/23 10:56:22;;;;;;;12.55;6.40;;;18.30;89.60;;;;;;5051965;28;20466;-73
2021/09/23 10:58:49;;;;;;;11.93;5.72;;;18.30;89.50;;;;;;5051182;28;20027;-74
2021/09/23 11:01:28;;;;;;;9.90;6.03;;;18.30;89.50;;;;;;5050605;28;20093;-74
2021/09/23 11:03:58;;;;;;;9.15;4.28;;;18.30;89.50;;;;;;5049950;28;20410;-74
2021/09/23 11:06:58;;;;;;;8.70;4.95;;;18.30;89.50;;;;;;5051843;28;20033;-74
2021/09/23 11:09:26;;;;;;;6.85;4.68;;;18.40;89.40;;;;;;5049727;28;20033;-74
2021/09/23 11:11:58;;;;;;;5.03;3.05;;;18.30;89.20;;;;;;5050815;28;20477;-74
2021/09/23 11:14:26;;;;;;;7.07;3.80;;;18.40;89.00;;;;;;5050275;28;20017;-74
2021/09/23 11:16:54;;;;;;;6.00;3.75;;;18.40;88.70;;;;;;5050999;28;20115;-73
2021/09/23 11:19:22;;;;;;;7.57;3.58;;;18.40;88.40;;;;;;5051499;28;20071;-73
2021/09/23 11:21:54;;;;;;;5.85;3.75;;;18.40;88.50;;;;;;5050940;28;20025;-73
2021/09/23 11:24:22;;;;;;;7.18;2.88;;;18.40;88.60;;;;;;5051656;28;20061;-73
2021/09/23 11:26:48;;;;;;;7.57;3.72;;;18.40;88.60;;;;;;5050947;28;20029;-73
2021/09/23 11:29:15;;;;;;;6.43;3.63;;;18.30;88.60;;;;;;5050231;28;20052;-73
2021/09/23 11:31:55;;;;;;;5.70;3.72;;;18.40;88.70;;;;;;5051584;28;20033;-73
2021/09/23 11:34:36;;;;;;;9.07;3.63;;;18.40;88.70;;;;;;5051375;28;20469;-73
2021/09/23 11:37:04;;;;;;;9.13;3.13;;;18.40;88.70;;;;;;5049580;28;20068;-73
2021/09/23 11:39:30;;;;;;;5.88;3.25;;;18.40;88.70;;;;;;5055185;28;20025;-73
2021/09/23 11:42:19;;;;;;;10.88;3.97;;;18.40;88.70;;;;;;5054961;28;20021;-73
2021/09/23 11:44:46;;;;;;;6.05;2.75;;;18.50;88.80;;;;;;5053790;28;20110;-73
2021/09/23 11:47:16;;;;;;;5.57;3.05;;;18.60;88.70;;;;;;5055540;28;20047;-73
2021/09/23 11:49:47;;;;;;;5.63;2.85;;;18.70;88.10;;;;;;5055737;28;20128;-73
2021/09/23 11:52:13;;;;;;;7.88;3.00;;;18.70;87.70;;;;;;5055154;28;20024;-74
2021/09/23 11:54:39;;;;;;;4.38;2.35;;;18.90;87.40;;;;;;5055228;28;20025;-73
2021/09/23 11:57:07;;;;;;;5.85;3.28;;;19.00;86.80;;;;;;5054615;28;20040;-73
2021/09/23 11:59:33;;;;;;;6.22;3.03;;;19.10;86.30;;;;;;5054935;28;20026;-73
2021/09/23 12:02:03;;;;;;;7.38;3.72;;;19.20;85.90;;;;;;5054536;28;20033;-74
2021/09/23 12:04:32;;;;;;;7.43;2.55;;;19.40;85.50;;;;;;5055217;28;20017;-73
2021/09/23 12:07:00;;;;;;;10.18;3.08;;;19.60;85.10;;;;;;5054373;28;20021;-74
2021/09/23 12:09:26;;;;;;;10.98;4.20;;;19.70;84.30;;;;;;5054862;28;20031;-74
2021/09/23 12:11:52;;;;;;;6.43;3.70;;;19.70;83.80;;;;;;5054180;28;20017;-74
2021/09/23 12:14:18;;;;;;;5.65;3.17;;;19.70;83.50;;;;;;5054693;28;20458;-73
2021/09/23 12:16:44;;;;;;;5.45;2.83;;;19.80;83.30;;;;;;5054931;28;20036;-73
2021/09/23 12:19:19;;;;;;;5.47;2.47;;;19.90;83.00;;;;;;5054360;28;20108;-73
2021/09/23 12:21:53;;;;;;;7.78;2.88;;;20.00;82.70;;;;;;5054911;28;20025;-74
2021/09/23 12:24:29;;;;;;;5.68;2.38;;;20.10;82.40;;;;;;5054738;28;20021;-73
2021/09/23 12:26:55;;;;;;;5.18;2.45;;;20.10;82.10;;;;;;5054231;28;20082;-73
2021/09/23 12:29:23;;;;;;;6.30;2.67;;;20.10;81.50;;;;;;5054657;28;20056;-74
2021/09/23 12:32:09;;;;;;;5.50;2.30;;;20.00;81.60;;;;;;5053921;28;20025;-74
2021/09/23 12:34:47;;;;;;;3.75;2.20;;;19.90;81.60;;;;;;5054358;28;20118;-73
2021/09/23 12:37:15;;;;;;;5.53;2.28;;;19.90;81.50;;;;;;5053959;28;20033;-73